Smyrna Airport
KMQY : now visible

Aeroporto :











RITROVATECI SU...

 
LOGIN :

Iscrizione | Disclaimer

   EN    FR    IT 

 









Sommario :    VFR   VFR Marginale   IFR   IFR Intensivo   IFR Molto Intensivo
Visibilità : 
Base nubi : 
>= 8 km
>= 3000ft
5 / 8 km
1000 / 3000 ft
1500m / 5 km
500 / 1000 ft
800 / 1500m
200 / 500 ft
< 800m
< 200 ft
Simboli :   Temporali  Nebbia  Neve Forte  Precipitazioni Forti  Vento > 20 kt






- Altitudine del aeroporto : 543 ft


KMQY - Smyrna

ULTIMO METAR :
  • 040256Z AUTO 00000KT 10SM BKN110 16/08 A3002 RMK AO2 SLP173 6//// T01610083 53006 PNO $

METARs OBSOLETI :
  • 040156Z 34005KT 10SM OVC100 17/08 A3002 RMK AO2 SLP171 T01720083 PNO $
  • 040056Z 01007KT 10SM OVC110 18/08 A3000 RMK AO2 SLP163 T01780078 PNO $

TAF KMQY
Valido dal 04 a 00 ore il 05 a 00 ore UTC


032320Z 0400/0424 VRB03KT P6SM BKN120
FM041300 02005KT P6SM SCT070



MetMap, La meteo Aeronautica in un colpo d'occhio ! - Copyright ORBIFLY Dicembre 2007 - Disclaimer

ORBIFLY MET'MAP TEAM :

Programmazione e sviluppo : Alexandra Zaïnal
Concezione : Baudouin d'Aumeries
Aiuto per la programmazione : Marc-Olivier Méhu
Supporto tecnico e logistico : Manuel Goepfert
Aiuto per la traduzione : Arnaldo La Scala

Contatto : metmap@orbifly.com




FONTI E CREDITI :

   NOAA       Earth
Advisory